Página principal
METAR-TAF:

METAR-TAF

Aeroportos :

Fort-de-France, Martinica

Aeroporto Internacional Aimé Césaire

latitude: 14-36N, longitude: 061-00W, altura: 5 m

Observação actual do tempo

O boletim foi feito há 29 minutos, às 23:00 UTC
Vento 3 kt de este, variando entre nordeste e su-sudeste
Temperatura 24°C
Humidade 83%
Pressão 1013 hPa
Visibilidade 10 km ou mais
sem nuvens abaixo de 1500 metros e sem cumulonimbus

METAR: TFFF 122300Z AUTO 08003KT 050V150 CAVOK 24/21 Q1013

Hora: 19:29 (23:29 UTC)

Previsão

O boletim foi feito há 6 horas e 29 minutos, às 17:00 UTC
Previsão válida de 12 às 18 UTC a 13 às 18 UTC
Vento 8 kt de este
Visibilidade 10 km ou mais
Nuvens dispersasa uma altura de 2500 ft
Probabilidade 30% :
Temporariamente
de 12 às 18 UTC a 13 às 18 UTC
Visibilidade: 4000 m
Poucas nuvensa uma altura de 1500 ft, Cumulus congestus.
aguaceiros fracos de chuva

TAF: TFFF 121700Z 1218/1318 10008KT 9999 SCT025 PROB30 TEMPO 1218/1318 4000 -SHRA FEW015TCU

Observações e previsões do tempo de mais de 4000 aeroportos (mensagens METAR e TAF).

As estações disponíveis são os pontos amarelos e vermelhos sobre o mapa.

Mova o rato sobre o mapa para ver o nome da estação.

Depois clique no ponto para visualizar as observações e previsões meteorológicas.

Para alterar o mapa : clique nos botões verdes com uma cruz preta para aumentar o zoom; no botão verde com uma pitada de zoom; ou nas setas verdes para mapas adjacentes.


METAR-TAF: